createdAt,value
2019-01-23T00:00:00.637Z,-6.34
2019-01-23T00:01:10.614Z,-6.44
2019-01-23T00:02:20.691Z,-6.39
2019-01-23T00:03:30.709Z,-6.33
2019-01-23T00:04:40.684Z,-6.39
2019-01-23T00:05:50.657Z,-6.34
2019-01-23T00:07:00.304Z,-6.42
2019-01-23T00:08:10.380Z,-6.33
2019-01-23T00:09:20.351Z,-6.34
2019-01-23T00:10:30.326Z,-6.34
2019-01-23T00:11:40.343Z,-6.3
2019-01-23T00:12:50.329Z,-6.26
2019-01-23T00:14:00.354Z,-6.26
2019-01-23T00:15:10.329Z,-6.27
2019-01-23T00:16:20.311Z,-6.15
2019-01-23T00:17:30.292Z,-6.26
2019-01-23T00:18:40.014Z,-6.15
2019-01-23T00:19:50.099Z,-6.24
2019-01-23T00:21:00.079Z,-6.12
2019-01-23T00:22:10.092Z,-6.24
2019-01-23T00:23:20.073Z,-6.12
2019-01-23T00:24:30.049Z,-6.1
2019-01-23T00:25:40.078Z,-6.07
2019-01-23T00:26:50.061Z,-6.09
2019-01-23T00:28:00.035Z,-6.13
2019-01-23T00:29:10.014Z,-6.09
2019-01-23T00:30:19.989Z,-6.16
2019-01-23T00:31:30.066Z,-6.09
2019-01-23T00:32:40.048Z,-6.07
2019-01-23T00:33:50.026Z,-6.12
2019-01-23T00:34:59.998Z,-6.12
2019-01-23T00:36:09.979Z,-6.1
2019-01-23T00:37:20.057Z,-6.2
2019-01-23T00:38:30.032Z,-6.21
2019-01-23T00:39:40.008Z,-6.2
2019-01-23T00:40:49.987Z,-6.18
2019-01-23T00:41:59.965Z,-6.23
2019-01-23T00:43:09.941Z,-6.2
2019-01-23T00:44:19.924Z,-6.2
2019-01-23T00:45:29.901Z,-6.24
2019-01-23T00:46:39.891Z,-6.3
2019-01-23T00:47:49.881Z,-6.3
2019-01-23T00:48:59.907Z,-6.23
2019-01-23T00:50:09.881Z,-6.31
2019-01-23T00:51:19.862Z,-6.26
2019-01-23T00:52:29.518Z,-6.18
2019-01-23T00:53:39.493Z,-6.27
2019-01-23T00:54:49.521Z,-6.24
2019-01-23T00:55:59.497Z,-6.21
2019-01-23T00:57:09.478Z,-6.26
2019-01-23T00:58:19.473Z,-6.26
2019-01-23T00:59:29.451Z,-6.2
2019-01-23T01:00:39.482Z,-6.16
2019-01-23T01:01:49.460Z,-6.3
2019-01-23T01:02:59.435Z,-6.23
2019-01-23T01:04:09.418Z,-6.27
2019-01-23T01:05:19.438Z,-6.23
2019-01-23T01:06:29.425Z,-6.33
2019-01-23T01:07:39.430Z,-6.28
2019-01-23T01:08:49.405Z,-6.24
2019-01-23T01:09:59.382Z,-6.3
2019-01-23T01:11:09.364Z,-6.3
2019-01-23T01:12:19.439Z,-6.23
2019-01-23T01:13:29.412Z,-6.26
2019-01-23T01:14:39.394Z,-6.23
2019-01-23T01:15:49.371Z,-6.23
2019-01-23T01:16:59.346Z,-6.23
2019-01-23T01:18:09.423Z,-6.24
2019-01-23T01:19:19.400Z,-6.33
2019-01-23T01:20:29.379Z,-6.2
2019-01-23T01:21:39.351Z,-6.33
2019-01-23T01:22:49.335Z,-6.31
2019-01-23T01:23:59.410Z,-6.31
2019-01-23T01:25:09.382Z,-6.31
2019-01-23T01:26:19.108Z,-6.33
2019-01-23T01:27:29.083Z,-6.34
2019-01-23T01:28:39.059Z,-6.3
2019-01-23T01:29:49.088Z,-6.33
2019-01-23T01:30:59.073Z,-6.36
2019-01-23T01:32:09.049Z,-6.24
2019-01-23T01:33:19.027Z,-6.21
2019-01-23T01:34:29.012Z,-6.24
2019-01-23T01:35:39.085Z,-6.23
2019-01-23T01:36:49.055Z,-6.33
2019-01-23T01:37:59.029Z,-6.27
2019-01-23T01:39:09.006Z,-6.34
2019-01-23T01:40:18.984Z,-6.31
2019-01-23T01:41:29.067Z,-6.28
2019-01-23T01:42:39.047Z,-6.33
2019-01-23T01:43:49.028Z,-6.36
2019-01-23T01:44:59.004Z,-6.3
2019-01-23T01:46:08.978Z,-6.34
2019-01-23T01:47:19.055Z,-6.33
2019-01-23T01:48:29.032Z,-6.36
2019-01-23T01:49:39.004Z,-6.33
2019-01-23T01:50:48.984Z,-6.33
2019-01-23T01:51:58.958Z,-6.3
2019-01-23T01:53:09.031Z,-6.34
2019-01-23T01:54:19.011Z,-6.34
2019-01-23T01:55:28.999Z,-6.33
2019-01-23T01:56:38.977Z,-6.33
2019-01-23T01:57:48.954Z,-6.31
2019-01-23T01:59:05.071Z,-6.31
2019-01-23T02:00:15.049Z,-6.34
2019-01-23T02:01:25.028Z,-6.34
2019-01-23T02:02:35.004Z,-6.36
2019-01-23T02:03:44.979Z,-6.36
2019-01-23T02:04:54.959Z,-6.33
2019-01-23T02:06:04.938Z,-6.31
2019-01-23T02:07:14.936Z,-6.34
2019-01-23T02:08:24.909Z,-6.31
2019-01-23T02:09:40.152Z,-6.36
2019-01-23T02:10:53.387Z,-6.34
2019-01-23T02:12:03.365Z,-6.31
2019-01-23T02:13:13.341Z,-6.33
2019-01-23T02:14:23.062Z,-6.39
2019-01-23T02:15:33.046Z,-6.31
2019-01-23T02:16:43.173Z,-6.34
2019-01-23T02:17:53.151Z,-6.34
2019-01-23T02:19:02.875Z,-6.39
2019-01-23T02:20:12.847Z,-6.33
2019-01-23T02:21:22.497Z,-6.31
2019-01-23T02:22:32.619Z,-6.36
2019-01-23T02:23:42.591Z,-6.33
2019-01-23T02:24:52.578Z,-6.34
2019-01-23T02:26:02.557Z,-6.3
2019-01-23T02:27:12.560Z,-6.31
2019-01-23T02:28:22.584Z,-6.39
2019-01-23T02:29:32.560Z,-6.34
2019-01-23T02:30:42.539Z,-6.36
2019-01-23T02:31:52.520Z,-6.36
2019-01-23T02:33:02.495Z,-6.36
2019-01-23T02:34:12.475Z,-6.38
2019-01-23T02:35:22.453Z,-6.33
2019-01-23T02:36:32.442Z,-6.34
2019-01-23T02:37:42.425Z,-6.34
2019-01-23T02:38:52.400Z,-6.34
2019-01-23T02:40:02.696Z,-6.31
2019-01-23T02:41:12.677Z,-6.34
2019-01-23T02:42:22.658Z,-6.38
2019-01-23T02:43:32.644Z,-6.3
2019-01-23T02:44:42.633Z,-6.36
2019-01-23T02:45:52.632Z,-6.31
2019-01-23T02:47:02.613Z,-6.26
2019-01-23T02:48:12.598Z,-6.27
2019-01-23T02:49:22.578Z,-6.31
2019-01-23T02:50:32.558Z,-6.36
2019-01-23T02:51:42.595Z,-6.33
2019-01-23T02:52:52.576Z,-6.28
2019-01-23T02:54:02.554Z,-6.33
2019-01-23T02:55:12.537Z,-6.31
2019-01-23T02:56:22.526Z,-6.3
2019-01-23T02:57:32.638Z,-6.31
2019-01-23T02:58:42.612Z,-6.3
2019-01-23T02:59:52.594Z,-6.24
2019-01-23T03:01:02.584Z,-6.24
2019-01-23T03:02:12.566Z,-6.31
2019-01-23T03:03:22.625Z,-6.33
2019-01-23T03:04:32.635Z,-6.36
2019-01-23T03:05:42.639Z,-6.24
2019-01-23T03:06:52.615Z,-6.26
2019-01-23T03:08:02.593Z,-6.36
2019-01-23T03:09:12.704Z,-6.28
2019-01-23T03:10:22.832Z,-6.2
2019-01-23T03:11:32.898Z,-6.33
2019-01-23T03:12:42.890Z,-6.2
2019-01-23T03:13:52.886Z,-6.28
2019-01-23T03:15:02.659Z,-6.2
2019-01-23T03:16:12.635Z,-6.24
2019-01-23T03:17:22.618Z,-6.24
2019-01-23T03:18:32.601Z,-6.26
2019-01-23T03:19:42.586Z,-6.1
2019-01-23T03:20:52.664Z,-6.1
2019-01-23T03:22:02.640Z,-6.07
2019-01-23T03:23:12.625Z,-6.05
2019-01-23T03:24:22.602Z,-6.06
2019-01-23T03:25:32.586Z,-6.02
2019-01-23T03:26:42.612Z,-5.94
2019-01-23T03:27:52.598Z,-5.91
2019-01-23T03:29:02.583Z,-5.88
2019-01-23T03:30:12.580Z,-5.91
2019-01-23T03:31:22.604Z,-5.84
2019-01-23T03:32:32.768Z,-5.77
2019-01-23T03:33:42.753Z,-5.77
2019-01-23T03:34:52.729Z,-5.73
2019-01-23T03:36:02.704Z,-5.67
2019-01-23T03:37:12.690Z,-5.67
2019-01-23T03:38:24.418Z,-5.64
2019-01-23T03:39:34.393Z,-5.64
2019-01-23T03:40:44.368Z,-5.59
2019-01-23T03:41:54.095Z,-5.56
2019-01-23T03:43:04.079Z,-5.59
2019-01-23T03:44:14.154Z,-5.58
2019-01-23T03:45:24.153Z,-5.6
2019-01-23T03:46:34.134Z,-5.55
2019-01-23T03:47:43.870Z,-5.55
2019-01-23T03:48:53.859Z,-5.59
2019-01-23T03:50:03.893Z,-5.56
2019-01-23T03:51:13.874Z,-5.48
2019-01-23T03:52:23.861Z,-5.55
2019-01-23T03:53:33.843Z,-5.59
2019-01-23T03:54:43.824Z,-5.56
2019-01-23T03:55:53.903Z,-5.59
2019-01-23T03:57:03.900Z,-5.6
2019-01-23T03:58:13.886Z,-5.58
2019-01-23T03:59:23.622Z,-5.5
2019-01-23T04:00:39.862Z,-5.49
2019-01-23T04:01:49.890Z,-5.49
2019-01-23T04:02:59.866Z,-5.39
2019-01-23T04:04:09.854Z,-5.49
2019-01-23T04:05:19.842Z,-5.45
2019-01-23T04:06:29.835Z,-5.52
2019-01-23T04:07:39.894Z,-5.53
2019-01-23T04:08:49.899Z,-5.48
2019-01-23T04:09:59.880Z,-5.52
2019-01-23T04:11:09.614Z,-5.5
2019-01-23T04:12:19.588Z,-5.5
2019-01-23T04:13:29.640Z,-5.48
2019-01-23T04:14:39.649Z,-5.46
2019-01-23T04:15:49.626Z,-5.52
2019-01-23T04:16:59.620Z,-5.46
2019-01-23T04:18:09.359Z,-5.52
2019-01-23T04:19:19.400Z,-5.37
2019-01-23T04:20:29.380Z,-5.37
2019-01-23T04:21:39.355Z,-5.25
2019-01-23T04:22:49.349Z,-5.23
2019-01-23T04:23:59.336Z,-5.12
2019-01-23T04:25:09.390Z,-5.1
2019-01-23T04:26:19.374Z,-5.02
2019-01-23T04:27:29.351Z,-4.97
2019-01-23T04:28:39.330Z,-4.83
2019-01-23T04:29:49.311Z,-4.74
2019-01-23T04:30:59.346Z,-4.76
2019-01-23T04:32:09.325Z,-4.76
2019-01-23T04:33:19.303Z,-4.71
2019-01-23T04:34:29.290Z,-4.61
2019-01-23T04:35:39.042Z,-4.7
2019-01-23T04:36:49.071Z,-4.61
2019-01-23T04:37:59.057Z,-4.59
2019-01-23T04:39:09.042Z,-4.52
2019-01-23T04:40:19.024Z,-4.58
2019-01-23T04:41:29.011Z,-4.52
2019-01-23T04:42:39.088Z,-4.58
2019-01-23T04:43:49.080Z,-4.56
2019-01-23T04:44:59.073Z,-4.62
2019-01-23T04:46:09.058Z,-4.58
2019-01-23T04:47:19.044Z,-4.53
2019-01-23T04:48:29.069Z,-4.56
2019-01-23T04:49:39.718Z,-4.58
2019-01-23T04:50:49.704Z,-4.62
2019-01-23T04:51:59.681Z,-4.63
2019-01-23T04:53:09.675Z,-4.76
2019-01-23T04:54:19.654Z,-4.74
2019-01-23T04:55:29.640Z,-4.73
2019-01-23T04:56:39.625Z,-4.76
2019-01-23T04:57:49.616Z,-4.73
2019-01-23T04:58:59.610Z,-4.88
2019-01-23T05:00:09.695Z,-4.81
2019-01-23T05:01:19.779Z,-4.83
2019-01-23T05:02:29.507Z,-4.87
2019-01-23T05:03:39.494Z,-4.9
2019-01-23T05:04:49.472Z,-4.84
2019-01-23T05:05:59.554Z,-4.84
2019-01-23T05:07:09.531Z,-4.87
2019-01-23T05:08:19.514Z,-4.88
2019-01-23T05:09:29.490Z,-4.9
2019-01-23T05:10:39.472Z,-4.94
2019-01-23T05:11:49.555Z,-4.94
2019-01-23T05:12:59.536Z,-4.98
2019-01-23T05:14:09.282Z,-4.97
2019-01-23T05:15:19.318Z,-4.94
2019-01-23T05:16:29.310Z,-5.01
2019-01-23T05:17:39.447Z,-5.12
2019-01-23T05:18:49.426Z,-4.98
2019-01-23T05:19:59.413Z,-5.02
2019-01-23T05:21:09.444Z,-5
2019-01-23T05:22:19.428Z,-4.94
2019-01-23T05:23:29.482Z,-4.94
2019-01-23T05:24:39.461Z,-4.83
2019-01-23T05:25:49.439Z,-4.77
2019-01-23T05:26:59.430Z,-4.74
2019-01-23T05:28:09.417Z,-4.67
2019-01-23T05:29:19.493Z,-4.59
2019-01-23T05:30:29.471Z,-4.52
2019-01-23T05:31:39.453Z,-4.55
2019-01-23T05:32:49.435Z,-4.47
2019-01-23T05:33:59.417Z,-4.55
2019-01-23T05:35:09.459Z,-4.59
2019-01-23T05:36:19.443Z,-4.61
2019-01-23T05:37:29.429Z,-4.61
2019-01-23T05:38:39.086Z,-4.65
2019-01-23T05:39:49.732Z,-4.62
2019-01-23T05:40:59.811Z,-4.63
2019-01-23T05:42:09.805Z,-4.74
2019-01-23T05:43:19.827Z,-4.77
2019-01-23T05:44:29.822Z,-4.76
2019-01-23T05:45:39.572Z,-4.74
2019-01-23T05:46:49.603Z,-4.88
2019-01-23T05:47:59.583Z,-4.84
2019-01-23T05:49:09.566Z,-4.81
2019-01-23T05:50:19.546Z,-4.84
2019-01-23T05:51:29.542Z,-4.9
2019-01-23T05:52:39.622Z,-4.84
2019-01-23T05:53:49.611Z,-4.79
2019-01-23T05:54:59.595Z,-4.8
2019-01-23T05:56:09.577Z,-4.9
2019-01-23T05:57:19.561Z,-4.77
2019-01-23T05:58:29.596Z,-4.8
2019-01-23T05:59:39.571Z,-4.7
2019-01-23T06:00:49.556Z,-4.87
2019-01-23T06:01:59.543Z,-4.88
2019-01-23T06:03:09.532Z,-4.8
2019-01-23T06:04:19.667Z,-4.77
2019-01-23T06:05:29.654Z,-4.74
2019-01-23T06:06:39.639Z,-4.7
2019-01-23T06:07:49.621Z,-4.61
2019-01-23T06:08:59.603Z,-4.58
2019-01-23T06:10:09.634Z,-4.56
2019-01-23T06:11:19.625Z,-4.59
2019-01-23T06:12:29.604Z,-4.51
2019-01-23T06:13:39.622Z,-4.52
2019-01-23T06:14:49.601Z,-4.58
2019-01-23T06:15:59.686Z,-4.58
2019-01-23T06:17:09.715Z,-4.52
2019-01-23T06:18:19.734Z,-4.52
2019-01-23T06:19:29.716Z,-4.51
2019-01-23T06:20:39.694Z,-4.52
2019-01-23T06:21:49.730Z,-4.51
2019-01-23T06:22:59.706Z,-4.49
2019-01-23T06:24:09.429Z,-4.42
2019-01-23T06:25:19.418Z,-4.44
2019-01-23T06:26:29.155Z,-4.49
2019-01-23T06:27:39.234Z,-4.52
2019-01-23T06:28:49.220Z,-4.41
2019-01-23T06:29:58.951Z,-4.47
2019-01-23T06:31:15.643Z,-4.49
2019-01-23T06:32:25.628Z,-4.47
2019-01-23T06:33:35.727Z,-4.44
2019-01-23T06:34:45.711Z,-4.45
2019-01-23T06:35:55.687Z,-4.49
2019-01-23T06:37:05.706Z,-4.51
2019-01-23T06:38:15.683Z,-4.51
2019-01-23T06:39:25.731Z,-4.49
2019-01-23T06:40:35.709Z,-4.49
2019-01-23T06:41:45.688Z,-4.51
2019-01-23T06:42:55.672Z,-4.47
2019-01-23T06:44:05.649Z,-4.4
2019-01-23T06:45:15.732Z,-4.47
2019-01-23T06:46:25.714Z,-4.47
2019-01-23T06:47:35.691Z,-4.44
2019-01-23T06:48:45.672Z,-4.47
2019-01-23T06:49:55.651Z,-4.44
2019-01-23T06:51:06.652Z,-4.42
2019-01-23T06:52:16.630Z,-4.44
2019-01-23T06:53:26.618Z,-4.47
2019-01-23T06:54:36.599Z,-4.41
2019-01-23T06:55:46.578Z,-4.37
2019-01-23T06:56:56.666Z,-4.34
2019-01-23T06:58:06.649Z,-4.24
2019-01-23T06:59:16.628Z,-4.19
2019-01-23T07:00:26.621Z,-4.14
2019-01-23T07:01:36.599Z,-4.12
2019-01-23T07:02:46.631Z,-4.02
2019-01-23T07:03:56.612Z,-4.05
2019-01-23T07:05:06.588Z,-3.98
2019-01-23T07:06:16.562Z,-3.87
2019-01-23T07:07:26.537Z,-3.95
2019-01-23T07:08:36.612Z,-3.85
2019-01-23T07:09:46.596Z,-3.85
2019-01-23T07:10:56.339Z,-3.81
2019-01-23T07:12:06.324Z,-3.94
2019-01-23T07:13:16.297Z,-3.9
2019-01-23T07:14:26.382Z,-3.91
2019-01-23T07:15:36.368Z,-3.91
2019-01-23T07:16:46.346Z,-3.9
2019-01-23T07:17:56.322Z,-3.96
2019-01-23T07:19:06.310Z,-3.88
2019-01-23T07:20:16.398Z,-3.96
2019-01-23T07:21:26.378Z,-3.91
2019-01-23T07:22:36.371Z,-3.88
2019-01-23T07:23:46.368Z,-3.88
2019-01-23T07:24:56.382Z,-3.88
2019-01-23T07:26:06.459Z,-3.91
2019-01-23T07:27:16.187Z,-3.9
2019-01-23T07:28:26.166Z,-3.84
2019-01-23T07:29:36.148Z,-3.91
2019-01-23T07:30:46.130Z,-3.87
2019-01-23T07:31:56.155Z,-3.91
2019-01-23T07:33:06.132Z,-3.91
2019-01-23T07:34:16.117Z,-3.9
2019-01-23T07:35:26.094Z,-3.9
2019-01-23T07:36:36.077Z,-3.8
2019-01-23T07:37:46.057Z,-3.85
2019-01-23T07:38:55.783Z,-3.81
2019-01-23T07:40:05.767Z,-3.81
2019-01-23T07:41:15.743Z,-3.83
2019-01-23T07:42:25.720Z,-3.74
2019-01-23T07:43:35.794Z,-3.69
2019-01-23T07:44:45.778Z,-3.68
2019-01-23T07:45:55.758Z,-3.66
2019-01-23T07:47:05.887Z,-3.68
2019-01-23T07:48:17.058Z,-3.68
2019-01-23T07:49:27.192Z,-3.69
2019-01-23T07:50:37.177Z,-3.71
2019-01-23T07:51:47.159Z,-3.69
2019-01-23T07:52:57.135Z,-3.68
2019-01-23T07:54:07.121Z,-3.69
2019-01-23T07:55:17.152Z,-3.71
2019-01-23T07:56:27.135Z,-3.71
2019-01-23T07:57:37.122Z,-3.69
2019-01-23T07:58:47.107Z,-3.69
2019-01-23T07:59:57.107Z,-3.62
2019-01-23T08:01:07.155Z,-3.64
2019-01-23T08:02:17.142Z,-3.69
2019-01-23T08:03:27.127Z,-3.69
2019-01-23T08:04:37.155Z,-3.61
2019-01-23T08:05:47.142Z,-3.59
2019-01-23T08:06:56.980Z,-3.58
2019-01-23T08:08:06.704Z,-3.56
2019-01-23T08:09:16.373Z,-3.5
2019-01-23T08:10:26.355Z,-3.59
2019-01-23T08:11:36.340Z,-3.58
2019-01-23T08:12:46.444Z,-3.62
2019-01-23T08:13:56.641Z,-3.64
2019-01-23T08:15:06.932Z,-3.71
2019-01-23T08:16:16.912Z,-3.74
2019-01-23T08:17:32.671Z,-3.69
2019-01-23T08:18:42.928Z,-3.68
2019-01-23T08:19:52.906Z,-3.68
2019-01-23T08:21:02.900Z,-3.69
2019-01-23T08:22:12.885Z,-3.66
2019-01-23T08:23:22.865Z,-3.71
2019-01-23T08:24:32.940Z,-3.68
2019-01-23T08:25:42.921Z,-3.68
2019-01-23T08:26:52.901Z,-3.68
2019-01-23T08:28:02.893Z,-3.68
2019-01-23T08:29:12.880Z,-3.74
2019-01-23T08:30:23.010Z,-3.68
2019-01-23T08:31:33.048Z,-3.77
2019-01-23T08:32:43.030Z,-3.75
2019-01-23T08:33:52.757Z,-3.66
2019-01-23T08:35:02.740Z,-3.66
2019-01-23T08:36:12.764Z,-3.68
2019-01-23T08:37:22.741Z,-3.69
2019-01-23T08:38:32.720Z,-3.68
2019-01-23T08:39:43.958Z,-3.66
2019-01-23T08:40:54.375Z,-3.61
2019-01-23T08:42:04.458Z,-3.64
2019-01-23T08:43:14.445Z,-3.69
2019-01-23T08:44:24.449Z,-3.62
2019-01-23T08:45:34.424Z,-3.53
2019-01-23T08:46:44.407Z,-3.55
2019-01-23T08:47:54.056Z,-3.5
2019-01-23T08:49:04.037Z,-3.58
2019-01-23T08:50:14.017Z,-3.58
2019-01-23T08:51:24.020Z,-3.61
2019-01-23T08:52:34.008Z,-3.59
2019-01-23T08:53:44.087Z,-3.61
2019-01-23T08:54:54.066Z,-3.55
2019-01-23T08:56:04.045Z,-3.58
2019-01-23T08:57:14.028Z,-3.68
2019-01-23T08:58:24.014Z,-3.64
2019-01-23T08:59:34.093Z,-3.58
2019-01-23T09:00:50.221Z,-3.44
2019-01-23T09:02:00.198Z,-3.43
2019-01-23T09:03:10.177Z,-3.41
2019-01-23T09:04:20.158Z,-3.41
2019-01-23T09:05:30.151Z,-3.48
2019-01-23T09:06:40.131Z,-3.33
2019-01-23T09:07:50.114Z,-3.38
2019-01-23T09:09:00.145Z,-3.4
2019-01-23T09:10:10.124Z,-3.46
2019-01-23T09:11:20.256Z,-3.41
2019-01-23T09:12:30.245Z,-3.47
2019-01-23T09:13:39.978Z,-3.48
2019-01-23T09:14:49.961Z,-3.48
2019-01-23T09:15:59.948Z,-3.47
2019-01-23T09:17:10.077Z,-3.53
2019-01-23T09:18:20.056Z,-3.48
2019-01-23T09:19:30.037Z,-3.53
2019-01-23T09:20:40.051Z,-3.48
2019-01-23T09:21:50.039Z,-3.5
2019-01-23T09:23:00.123Z,-3.56
2019-01-23T09:24:10.105Z,-3.62
2019-01-23T09:25:20.095Z,-3.64
2019-01-23T09:26:30.077Z,-3.68
2019-01-23T09:27:40.056Z,-3.8
2019-01-23T09:28:50.088Z,-3.68
2019-01-23T09:30:00.095Z,-3.8
2019-01-23T09:31:10.161Z,-3.77
2019-01-23T09:32:20.147Z,-3.75
2019-01-23T09:33:30.188Z,-3.71
2019-01-23T09:34:40.169Z,-3.64
2019-01-23T09:35:50.159Z,-3.65
2019-01-23T09:37:00.139Z,-3.55
2019-01-23T09:38:09.867Z,-3.53
2019-01-23T09:39:19.854Z,-3.51
2019-01-23T09:40:29.932Z,-3.53
2019-01-23T09:41:39.910Z,-3.48
2019-01-23T09:42:49.899Z,-3.47
2019-01-23T09:43:59.880Z,-3.43
2019-01-23T09:45:09.874Z,-3.47
2019-01-23T09:46:20.014Z,-3.37
2019-01-23T09:47:29.994Z,-3.38
2019-01-23T09:48:39.399Z,-3.2
2019-01-23T09:49:49.381Z,-3.29
2019-01-23T09:50:59.364Z,-3.14
2019-01-23T09:52:09.393Z,-3.22
2019-01-23T09:53:19.123Z,-3.09
2019-01-23T09:54:28.853Z,-3.15
2019-01-23T09:55:38.831Z,-3.15
2019-01-23T09:56:48.814Z,-3.08
2019-01-23T09:57:58.945Z,-2.99
2019-01-23T09:59:08.983Z,-2.98
2019-01-23T10:00:18.998Z,-2.98
2019-01-23T10:01:28.979Z,-2.89
2019-01-23T10:02:38.960Z,-2.8
2019-01-23T10:03:48.941Z,-2.78
2019-01-23T10:04:58.923Z,-2.69
2019-01-23T10:06:08.907Z,-2.68
2019-01-23T10:07:18.894Z,-2.57
2019-01-23T10:08:28.875Z,-2.52
2019-01-23T10:09:39.169Z,-2.61
2019-01-23T10:10:49.223Z,-2.39
2019-01-23T10:11:59.201Z,-2.4
2019-01-23T10:13:09.234Z,-2.45
2019-01-23T10:14:19.216Z,-2.39
2019-01-23T10:15:29.303Z,-2.29
2019-01-23T10:16:39.298Z,-2.37
2019-01-23T10:17:49.283Z,-2.26
2019-01-23T10:19:00.795Z,-2.23
2019-01-23T10:20:10.775Z,-2.25
2019-01-23T10:21:20.806Z,-2.26
2019-01-23T10:22:30.795Z,-2.23
2019-01-23T10:23:40.775Z,-2.18
2019-01-23T10:24:55.848Z,-2.18
2019-01-23T10:26:09.690Z,-2.11
2019-01-23T10:27:19.614Z,-2.1
2019-01-23T10:28:29.643Z,-2.08
2019-01-23T10:29:39.624Z,-2
2019-01-23T10:30:49.282Z,-2.07
2019-01-23T10:31:59.265Z,-1.94
2019-01-23T10:33:09.298Z,-1.96
2019-01-23T10:34:19.279Z,-1.9
2019-01-23T10:35:29.266Z,-1.79
2019-01-23T10:36:39.250Z,-1.78
2019-01-23T10:37:49.230Z,-1.81
2019-01-23T10:38:59.222Z,-1.78
2019-01-23T10:40:09.204Z,-1.68
2019-01-23T10:41:19.191Z,-1.78
2019-01-23T10:42:29.175Z,-1.76
2019-01-23T10:43:39.156Z,-1.75
2019-01-23T10:44:49.187Z,-1.75
2019-01-23T10:45:59.171Z,-1.74
2019-01-23T10:47:09.154Z,-1.71
2019-01-23T10:48:19.133Z,-1.74
2019-01-23T10:49:29.116Z,-1.72
2019-01-23T10:50:39.197Z,-1.61
2019-01-23T10:51:49.187Z,-1.64
2019-01-23T10:52:59.164Z,-1.68
2019-01-23T10:54:09.944Z,-1.68
2019-01-23T10:55:19.960Z,-1.61
2019-01-23T10:56:29.990Z,-1.64
2019-01-23T10:57:39.971Z,-1.58
2019-01-23T10:58:49.954Z,-1.5
2019-01-23T10:59:59.931Z,-1.48
2019-01-23T11:01:15.636Z,-1.5
2019-01-23T11:02:25.766Z,-1.43
2019-01-23T11:03:35.749Z,-1.43
2019-01-23T11:04:46.511Z,-1.56
2019-01-23T11:05:56.500Z,-1.72
2019-01-23T11:07:06.487Z,-1.82
2019-01-23T11:08:16.625Z,-1.94
2019-01-23T11:09:26.857Z,-1.99
2019-01-23T11:10:37.040Z,-2
2019-01-23T11:11:47.027Z,-2.1
2019-01-23T11:12:57.013Z,-2.08
2019-01-23T11:14:07.159Z,-2.2
2019-01-23T11:15:17.143Z,-2.25
2019-01-23T11:16:27.144Z,-2.37
2019-01-23T11:17:36.854Z,-2.2
2019-01-23T11:18:46.848Z,-2.23
2019-01-23T11:19:56.930Z,-2.18
2019-01-23T11:21:06.911Z,-2.22
2019-01-23T11:22:16.893Z,-2.17
2019-01-23T11:23:26.872Z,-2.18
2019-01-23T11:24:36.855Z,-2.13
2019-01-23T11:25:46.978Z,-2.05
2019-01-23T11:26:56.965Z,-2
2019-01-23T11:28:06.947Z,-1.92
2019-01-23T11:29:16.677Z,-1.89
2019-01-23T11:30:26.657Z,-1.79
2019-01-23T11:31:36.744Z,-1.96
2019-01-23T11:32:46.733Z,-1.89
2019-01-23T11:33:56.730Z,-1.84
2019-01-23T11:35:06.471Z,-1.96
2019-01-23T11:36:16.452Z,-1.86
2019-01-23T11:37:26.541Z,-1.79
2019-01-23T11:38:36.525Z,-1.75
2019-01-23T11:39:46.510Z,-1.68
2019-01-23T11:40:56.501Z,-1.78
2019-01-23T11:42:06.489Z,-1.64
2019-01-23T11:43:16.572Z,-1.64
2019-01-23T11:44:26.556Z,-1.69
2019-01-23T11:45:36.553Z,-1.6
2019-01-23T11:46:46.534Z,-1.56
2019-01-23T11:47:56.519Z,-1.54
2019-01-23T11:49:06.500Z,-1.48
2019-01-23T11:50:24.175Z,-1.57
2019-01-23T11:51:34.160Z,-1.53
2019-01-23T11:52:44.146Z,-1.5
2019-01-23T11:53:54.135Z,-1.57
2019-01-23T11:55:04.221Z,-1.56
2019-01-23T11:56:14.202Z,-1.48
2019-01-23T11:57:24.186Z,-1.43
2019-01-23T11:58:34.168Z,-1.43
2019-01-23T11:59:44.150Z,-1.43
2019-01-23T12:00:54.282Z,-1.39
2019-01-23T12:02:04.269Z,-1.43
2019-01-23T12:03:20.680Z,-1.46
2019-01-23T12:04:30.842Z,-1.39
2019-01-23T12:05:40.829Z,-1.45
2019-01-23T12:06:50.909Z,-1.45
2019-01-23T12:08:00.898Z,-1.42
2019-01-23T12:09:10.883Z,-1.51
2019-01-23T12:10:22.543Z,-1.46
2019-01-23T12:11:33.362Z,-1.5
2019-01-23T12:12:43.629Z,-1.46
2019-01-23T12:13:58.229Z,-1.43
2019-01-23T12:15:08.551Z,-1.46
2019-01-23T12:16:18.532Z,-1.48
2019-01-23T12:17:28.520Z,-1.46
2019-01-23T12:18:38.825Z,-1.45
2019-01-23T12:19:48.839Z,-1.48
2019-01-23T12:20:58.821Z,-1.54
2019-01-23T12:22:08.823Z,-1.57
2019-01-23T12:23:18.806Z,-1.51
2019-01-23T12:24:29.574Z,-1.57
2019-01-23T12:25:39.565Z,-1.53
2019-01-23T12:26:49.552Z,-1.43
2019-01-23T12:27:59.534Z,-1.45
2019-01-23T12:29:09.578Z,-1.46
2019-01-23T12:30:19.614Z,-1.4
2019-01-23T12:31:34.789Z,-1.56
2019-01-23T12:32:45.059Z,-1.45
2019-01-23T12:33:55.045Z,-1.38
2019-01-23T12:35:05.260Z,-1.42
2019-01-23T12:36:15.347Z,-1.43
2019-01-23T12:37:25.330Z,-1.46
2019-01-23T12:38:35.316Z,-1.42
2019-01-23T12:39:45.301Z,-1.43
2019-01-23T12:40:55.288Z,-1.46
2019-01-23T12:42:05.322Z,-1.51
2019-01-23T12:43:15.303Z,-1.53
2019-01-23T12:44:25.327Z,-1.58
2019-01-23T12:45:35.319Z,-1.56
2019-01-23T12:46:45.368Z,-1.61
2019-01-23T12:47:55.403Z,-1.56
2019-01-23T12:49:05.383Z,-1.54
2019-01-23T12:50:15.366Z,-1.56
2019-01-23T12:51:25.344Z,-1.54
2019-01-23T12:52:35.326Z,-1.53
2019-01-23T12:53:45.408Z,-1.51
2019-01-23T12:54:55.391Z,-1.56
2019-01-23T12:56:05.493Z,-1.54
2019-01-23T12:57:15.476Z,-1.6
2019-01-23T12:58:25.462Z,-1.58
2019-01-23T12:59:35.600Z,-1.64
2019-01-23T13:00:45.583Z,-1.64
2019-01-23T13:01:55.562Z,-1.68
2019-01-23T13:03:05.547Z,-1.69
2019-01-23T13:04:15.531Z,-1.71
2019-01-23T13:05:25.665Z,-1.66
2019-01-23T13:06:35.658Z,-1.79
2019-01-23T13:07:45.643Z,-1.81
2019-01-23T13:08:55.375Z,-1.75
2019-01-23T13:10:05.354Z,-1.72
2019-01-23T13:11:15.387Z,-1.79
2019-01-23T13:12:25.368Z,-1.74
2019-01-23T13:13:35.347Z,-1.74
2019-01-23T13:14:45.331Z,-1.76
2019-01-23T13:15:55.360Z,-1.82
2019-01-23T13:17:05.398Z,-1.75
2019-01-23T13:18:15.390Z,-1.68
2019-01-23T13:19:25.371Z,-1.68
2019-01-23T13:20:35.357Z,-1.78
2019-01-23T13:21:45.341Z,-1.76
2019-01-23T13:22:55.421Z,-1.78
2019-01-23T13:24:05.408Z,-1.75
2019-01-23T13:25:15.404Z,-1.74
2019-01-23T13:26:25.382Z,-1.74
2019-01-23T13:27:35.362Z,-1.78
2019-01-23T13:28:45.392Z,-1.74
2019-01-23T13:29:55.368Z,-1.81
2019-01-23T13:31:05.420Z,-1.79
2019-01-23T13:32:15.400Z,-1.81
2019-01-23T13:33:25.387Z,-1.87
2019-01-23T13:34:35.472Z,-1.81
2019-01-23T13:35:45.451Z,-1.79
2019-01-23T13:36:55.462Z,-1.75
2019-01-23T13:38:05.449Z,-1.78
2019-01-23T13:39:15.438Z,-1.75
2019-01-23T13:40:25.473Z,-1.81
2019-01-23T13:41:35.470Z,-1.71
2019-01-23T13:42:45.462Z,-1.76
2019-01-23T13:43:55.451Z,-1.71
2019-01-23T13:45:05.439Z,-1.82
2019-01-23T13:46:15.525Z,-1.87
2019-01-23T13:47:25.507Z,-1.89
2019-01-23T13:48:35.488Z,-1.87
2019-01-23T13:49:45.470Z,-1.79
2019-01-23T13:50:55.451Z,-1.92
2019-01-23T13:52:05.936Z,-1.9
2019-01-23T13:53:15.914Z,-1.86
2019-01-23T13:54:25.899Z,-1.96
2019-01-23T13:55:35.879Z,-1.86
2019-01-23T13:56:45.868Z,-1.84
2019-01-23T13:57:56.056Z,-1.87
2019-01-23T13:59:06.037Z,-1.89
2019-01-23T14:00:16.025Z,-1.9
2019-01-23T14:01:26.011Z,-1.9
2019-01-23T14:02:35.995Z,-1.9
2019-01-23T14:03:46.027Z,-1.97
2019-01-23T14:04:56.004Z,-1.94
2019-01-23T14:06:05.987Z,-2.02
2019-01-23T14:07:15.979Z,-1.97
2019-01-23T14:08:25.958Z,-2
2019-01-23T14:09:36.430Z,-2.07
2019-01-23T14:10:46.416Z,-2.04
2019-01-23T14:11:56.396Z,-2
2019-01-23T14:13:06.381Z,-2.08
2019-01-23T14:14:16.362Z,-2.11
2019-01-23T14:15:26.406Z,-2.05
2019-01-23T14:16:36.385Z,-2.1
2019-01-23T14:17:46.365Z,-2.18
2019-01-23T14:18:56.354Z,-2.1
2019-01-23T14:20:06.342Z,-2.11
2019-01-23T14:21:16.472Z,-2.07
2019-01-23T14:22:26.459Z,-2.11
2019-01-23T14:23:36.447Z,-2.02
2019-01-23T14:24:46.433Z,-2
2019-01-23T14:25:56.427Z,-2.05
2019-01-23T14:27:06.508Z,-1.97
2019-01-23T14:28:16.493Z,-2.02
2019-01-23T14:29:26.498Z,-1.96
2019-01-23T14:30:36.480Z,-1.99
2019-01-23T14:31:46.468Z,-2.04
2019-01-23T14:32:56.509Z,-2
2019-01-23T14:34:06.492Z,-1.89
2019-01-23T14:35:16.478Z,-1.97
2019-01-23T14:36:26.457Z,-1.89
2019-01-23T14:37:36.440Z,-1.89
2019-01-23T14:38:46.523Z,-1.82
2019-01-23T14:39:57.165Z,-1.81
2019-01-23T14:41:07.239Z,-1.92
2019-01-23T14:42:17.223Z,-1.94
2019-01-23T14:43:27.204Z,-1.92
2019-01-23T14:44:37.239Z,-1.97
2019-01-23T14:45:47.230Z,-2
2019-01-23T14:46:57.218Z,-2.02
2019-01-23T14:48:07.196Z,-2.07
2019-01-23T14:49:17.179Z,-2.07
2019-01-23T14:50:27.563Z,-2.04
2019-01-23T14:51:37.544Z,-2.1
2019-01-23T14:52:47.531Z,-2.15
2019-01-23T14:53:57.517Z,-2.23
2019-01-23T14:55:07.499Z,-2.15
2019-01-23T14:56:17.579Z,-2.32
2019-01-23T14:57:27.596Z,-2.33
2019-01-23T14:58:37.631Z,-2.32
2019-01-23T14:59:47.610Z,-2.36
2019-01-23T15:00:57.593Z,-2.36
2019-01-23T15:02:12.674Z,-2.33
2019-01-23T15:03:22.659Z,-2.32
2019-01-23T15:04:32.646Z,-2.34
2019-01-23T15:05:42.627Z,-2.39
2019-01-23T15:06:52.616Z,-2.32